createdAt,value
2023-04-20T00:00:43.295Z,2.90
2023-04-20T00:03:21.715Z,2.70
2023-04-20T00:05:50.178Z,2.70
2023-04-20T00:08:18.147Z,3.00
2023-04-20T00:10:46.984Z,3.10
2023-04-20T00:13:15.096Z,2.70
2023-04-20T00:15:43.286Z,2.60
2023-04-20T00:18:11.770Z,2.90
2023-04-20T00:20:40.155Z,3.20
2023-04-20T00:23:08.531Z,2.80
2023-04-20T00:25:36.619Z,2.50
2023-04-20T00:28:05.906Z,2.90
2023-04-20T00:30:35.035Z,3.00
2023-04-20T00:33:03.436Z,2.90
2023-04-20T00:35:31.969Z,2.90
2023-04-20T00:38:00.130Z,3.10
2023-04-20T00:40:28.303Z,2.50
2023-04-20T00:42:56.589Z,2.50
2023-04-20T00:45:25.065Z,3.00
2023-04-20T00:47:53.614Z,3.10
2023-04-20T00:50:22.231Z,3.10
2023-04-20T00:52:50.614Z,2.90
2023-04-20T00:55:20.956Z,3.20
2023-04-20T00:57:49.839Z,3.00
2023-04-20T01:00:18.172Z,3.00
2023-04-20T01:02:48.998Z,3.10
2023-04-20T01:05:17.731Z,2.60
2023-04-20T01:07:45.902Z,3.10
2023-04-20T01:10:14.194Z,3.20
2023-04-20T01:12:42.357Z,3.10
2023-04-20T01:15:12.198Z,3.00
2023-04-20T01:17:41.113Z,3.30
2023-04-20T01:20:17.732Z,3.20
2023-04-20T01:22:47.650Z,2.80
2023-04-20T01:25:16.741Z,2.80
2023-04-20T01:27:45.140Z,3.00
2023-04-20T01:30:13.728Z,3.20
2023-04-20T01:32:41.966Z,2.50
2023-04-20T01:35:10.687Z,3.40
2023-04-20T01:37:40.417Z,3.20
2023-04-20T01:40:10.817Z,3.10
2023-04-20T01:42:40.160Z,3.50
2023-04-20T01:47:37.318Z,2.80
2023-04-20T01:50:06.204Z,3.20
2023-04-20T01:52:34.364Z,3.10
2023-04-20T01:55:02.413Z,3.50
2023-04-20T01:57:30.598Z,3.20
2023-04-20T02:00:00.606Z,3.10
2023-04-20T02:02:28.934Z,3.60
2023-04-20T02:04:57.367Z,3.40
2023-04-20T02:07:25.948Z,3.50
2023-04-20T02:09:54.124Z,3.80
2023-04-20T02:12:22.499Z,3.70
2023-04-20T02:14:50.881Z,3.40
2023-04-20T02:17:19.779Z,3.70
2023-04-20T02:19:48.048Z,3.30
2023-04-20T02:22:16.233Z,3.30
2023-04-20T02:24:44.955Z,3.40
2023-04-20T02:27:13.291Z,3.60
2023-04-20T02:29:41.656Z,3.50
2023-04-20T02:32:11.478Z,3.80
2023-04-20T02:34:39.552Z,3.30
2023-04-20T02:37:07.829Z,3.80
2023-04-20T02:39:36.413Z,3.70
2023-04-20T02:42:06.004Z,3.90
2023-04-20T02:44:34.608Z,3.70
2023-04-20T02:47:03.390Z,3.00
2023-04-20T02:49:31.517Z,3.30
2023-04-20T02:51:59.821Z,3.80
2023-04-20T02:54:28.136Z,3.70
2023-04-20T02:56:58.068Z,3.80
2023-04-20T02:59:27.966Z,3.30
2023-04-20T03:02:03.904Z,3.10
2023-04-20T03:04:32.346Z,3.20
2023-04-20T03:07:26.297Z,3.20
2023-04-20T03:09:54.873Z,2.80
2023-04-20T03:12:23.263Z,3.50
2023-04-20T03:15:07.976Z,4.30
2023-04-20T03:17:56.558Z,3.40
2023-04-20T03:20:25.022Z,3.50
2023-04-20T03:23:02.120Z,4.00
2023-04-20T03:25:31.242Z,3.60
2023-04-20T03:30:31.261Z,3.20
2023-04-20T03:33:06.144Z,3.60
2023-04-20T03:35:34.553Z,3.40
2023-04-20T03:38:02.852Z,3.60
2023-04-20T03:40:31.414Z,3.40
2023-04-20T03:43:02.557Z,3.20
2023-04-20T03:45:30.849Z,3.90
2023-04-20T03:47:59.397Z,3.90
2023-04-20T03:50:30.642Z,4.10
2023-04-20T03:52:59.451Z,3.10
2023-04-20T03:55:27.801Z,3.30
2023-04-20T03:58:00.580Z,3.40
2023-04-20T04:00:30.380Z,3.50
2023-04-20T04:03:01.149Z,3.30
2023-04-20T04:05:29.759Z,4.00
2023-04-20T04:08:07.251Z,3.70
2023-04-20T04:10:35.951Z,3.60
2023-04-20T04:13:14.339Z,3.90
2023-04-20T04:15:46.314Z,4.10
2023-04-20T04:18:15.296Z,3.60
2023-04-20T04:20:46.820Z,4.00
2023-04-20T04:23:15.396Z,4.00
2023-04-20T04:25:50.261Z,4.10
2023-04-20T04:28:21.946Z,4.30
2023-04-20T04:31:01.654Z,3.90
2023-04-20T04:33:30.150Z,3.90
2023-04-20T04:35:59.188Z,4.60
2023-04-20T04:38:35.212Z,4.90
2023-04-20T04:41:07.378Z,4.80
2023-04-20T04:43:35.547Z,4.50
2023-04-20T04:48:43.517Z,5.20
2023-04-20T04:51:11.969Z,5.00
2023-04-20T04:53:40.329Z,4.10
2023-04-20T04:56:08.805Z,4.70
2023-04-20T04:58:37.066Z,4.60
2023-04-20T05:01:05.873Z,4.80
2023-04-20T05:03:34.274Z,5.00
2023-04-20T05:06:02.828Z,5.30
2023-04-20T05:08:31.013Z,5.30
2023-04-20T05:10:59.027Z,5.10
2023-04-20T05:13:27.154Z,4.50
2023-04-20T05:15:55.365Z,3.80
2023-04-20T05:18:23.882Z,4.20
2023-04-20T05:20:52.290Z,4.10
2023-04-20T05:23:20.772Z,3.60
2023-04-20T05:25:48.844Z,4.90
2023-04-20T05:28:17.980Z,3.80
2023-04-20T05:33:14.490Z,3.80
2023-04-20T05:35:42.465Z,3.50
2023-04-20T05:38:10.742Z,3.70
2023-04-20T05:40:39.016Z,3.90
2023-04-20T05:43:07.604Z,3.30
2023-04-20T05:45:36.218Z,4.40
2023-04-20T05:50:32.532Z,3.60
2023-04-20T05:53:00.501Z,3.50
2023-04-20T05:55:28.572Z,3.70
2023-04-20T05:57:56.607Z,3.60
2023-04-20T06:00:26.147Z,3.40
2023-04-20T06:02:55.038Z,3.70
2023-04-20T06:05:23.384Z,3.10
2023-04-20T06:07:51.472Z,3.70
2023-04-20T06:10:19.569Z,3.70
2023-04-20T06:12:48.199Z,3.30
2023-04-20T06:15:17.267Z,3.40
2023-04-20T06:17:45.437Z,3.50
2023-04-20T06:20:13.549Z,3.40
2023-04-20T06:22:45.497Z,4.20
2023-04-20T06:25:14.147Z,3.30
2023-04-20T06:27:42.438Z,3.10
2023-04-20T06:32:38.774Z,3.00
2023-04-20T06:37:36.690Z,3.00
2023-04-20T06:40:08.993Z,2.60
2023-04-20T06:42:37.869Z,2.70
2023-04-20T06:45:06.942Z,2.60
2023-04-20T06:47:36.193Z,2.70
2023-04-20T06:50:09.660Z,2.60
2023-04-20T06:52:40.313Z,2.30
2023-04-20T06:55:09.857Z,2.70
2023-04-20T06:57:40.880Z,2.40
2023-04-20T07:00:11.213Z,2.30
2023-04-20T07:02:46.422Z,2.40
2023-04-20T07:05:15.996Z,2.50
2023-04-20T07:07:44.556Z,2.40
2023-04-20T07:10:14.213Z,2.50
2023-04-20T07:12:43.759Z,2.10
2023-04-20T07:15:12.980Z,2.50
2023-04-20T07:17:41.466Z,2.70
2023-04-20T07:20:10.238Z,4.90
2023-04-20T07:22:38.937Z,2.90
2023-04-20T07:25:09.120Z,3.10
2023-04-20T07:27:39.669Z,3.10
2023-04-20T07:30:09.190Z,2.70
2023-04-20T07:32:38.705Z,2.10
2023-04-20T07:35:07.505Z,2.60
2023-04-20T07:40:06.714Z,2.20
2023-04-20T07:42:37.228Z,2.20
2023-04-20T07:45:06.980Z,2.40
2023-04-20T07:47:35.607Z,2.40
2023-04-20T07:50:07.628Z,2.50
2023-04-20T07:52:35.951Z,2.30
2023-04-20T07:55:06.166Z,2.50
2023-04-20T07:57:35.585Z,2.30
2023-04-20T08:00:08.957Z,2.60
2023-04-20T08:02:42.887Z,2.60
2023-04-20T08:05:11.646Z,2.50
2023-04-20T08:07:40.262Z,2.20
2023-04-20T08:10:09.261Z,2.10
2023-04-20T08:12:37.442Z,2.70
2023-04-20T08:15:07.051Z,2.30
2023-04-20T08:17:35.516Z,2.00
2023-04-20T08:20:06.177Z,2.00
2023-04-20T08:22:34.447Z,2.10
2023-04-20T08:25:02.606Z,2.50
2023-04-20T08:27:31.192Z,2.40
2023-04-20T08:29:59.570Z,2.00
2023-04-20T08:32:27.805Z,2.40
2023-04-20T08:34:56.535Z,2.20
2023-04-20T08:37:25.967Z,2.40
2023-04-20T08:39:54.039Z,2.30
2023-04-20T08:42:22.170Z,2.30
2023-04-20T08:44:50.160Z,2.20
2023-04-20T08:47:18.531Z,2.10
2023-04-20T08:49:49.258Z,2.30
2023-04-20T08:52:17.410Z,2.50
2023-04-20T08:54:56.129Z,2.40
2023-04-20T08:57:26.391Z,2.60
2023-04-20T08:59:55.573Z,2.50
2023-04-20T09:02:23.811Z,2.90
2023-04-20T09:05:06.054Z,2.60
2023-04-20T09:07:34.124Z,2.90
2023-04-20T09:10:02.170Z,2.70
2023-04-20T09:12:41.785Z,3.00
2023-04-20T09:15:10.963Z,2.50
2023-04-20T09:17:41.501Z,2.70
2023-04-20T09:20:11.524Z,2.70
2023-04-20T09:22:40.944Z,2.60
2023-04-20T09:25:19.422Z,2.30
2023-04-20T09:27:59.200Z,2.80
2023-04-20T09:30:39.358Z,2.80
2023-04-20T09:33:08.736Z,2.50
2023-04-20T09:35:39.950Z,2.50
2023-04-20T09:38:09.356Z,2.60
2023-04-20T09:40:38.349Z,2.90
2023-04-20T09:43:20.512Z,2.90
2023-04-20T09:45:49.443Z,2.60
2023-04-20T09:48:19.408Z,3.40
2023-04-20T09:50:51.139Z,3.90
2023-04-20T09:53:20.282Z,2.90
2023-04-20T09:55:52.142Z,2.70
2023-04-20T09:58:21.385Z,2.40
2023-04-20T10:00:51.349Z,2.20
2023-04-20T10:03:20.686Z,2.60
2023-04-20T10:05:49.430Z,2.20
2023-04-20T10:08:20.573Z,2.50
2023-04-20T10:10:50.685Z,2.10
2023-04-20T10:13:23.353Z,2.60
2023-04-20T10:15:51.378Z,2.20
2023-04-20T10:18:23.918Z,2.40
2023-04-20T10:21:13.651Z,2.40
2023-04-20T10:23:52.397Z,2.90
2023-04-20T10:26:21.072Z,2.30
2023-04-20T10:31:19.984Z,2.80
2023-04-20T10:33:53.501Z,2.50
2023-04-20T10:36:29.750Z,2.60
2023-04-20T10:38:59.005Z,2.60
2023-04-20T10:41:27.372Z,2.60
2023-04-20T10:43:55.708Z,2.20
2023-04-20T10:46:24.839Z,2.70
2023-04-20T10:49:01.238Z,3.00
2023-04-20T10:51:29.706Z,2.60
2023-04-20T10:54:05.527Z,2.50
2023-04-20T10:56:44.895Z,2.50
2023-04-20T10:59:15.281Z,2.10
2023-04-20T11:01:44.688Z,2.60
2023-04-20T11:04:15.019Z,2.60
2023-04-20T11:06:48.356Z,2.40
2023-04-20T11:09:23.633Z,2.20
2023-04-20T11:12:08.728Z,2.70
2023-04-20T11:14:39.151Z,2.40
2023-04-20T11:17:07.382Z,2.50
2023-04-20T11:19:37.299Z,2.50
2023-04-20T11:22:08.970Z,2.60
2023-04-20T11:24:37.608Z,2.60
2023-04-20T11:29:36.760Z,2.80
2023-04-20T11:32:06.724Z,2.90
2023-04-20T11:34:36.694Z,2.30
2023-04-20T11:37:10.496Z,2.30
2023-04-20T11:39:39.810Z,2.50
2023-04-20T11:42:07.876Z,2.60
2023-04-20T11:44:37.174Z,2.30
2023-04-20T11:47:06.118Z,2.60
2023-04-20T11:49:34.749Z,2.50
2023-04-20T11:52:03.356Z,2.60
2023-04-20T11:54:34.237Z,2.20
2023-04-20T11:57:02.765Z,2.30
2023-04-20T11:59:30.726Z,2.20
2023-04-20T12:02:01.366Z,2.20
2023-04-20T12:04:34.490Z,2.20
2023-04-20T12:07:03.137Z,2.50
2023-04-20T12:09:36.075Z,2.80
2023-04-20T12:12:05.525Z,2.50
2023-04-20T12:14:33.776Z,2.40
2023-04-20T12:17:04.130Z,2.80
2023-04-20T12:19:32.352Z,2.70
2023-04-20T12:22:00.898Z,2.80
2023-04-20T12:24:29.398Z,2.70
2023-04-20T12:26:59.509Z,2.30
2023-04-20T12:29:27.664Z,2.80
2023-04-20T12:31:55.758Z,3.10
2023-04-20T12:34:23.814Z,3.10
2023-04-20T12:36:51.783Z,3.00
2023-04-20T12:39:20.867Z,3.70
2023-04-20T12:41:48.972Z,3.60
2023-04-20T12:44:17.787Z,4.30
2023-04-20T12:46:46.282Z,3.40
2023-04-20T12:49:14.490Z,3.30
2023-04-20T12:51:42.664Z,3.60
2023-04-20T12:54:12.064Z,2.90
2023-04-20T12:56:40.239Z,3.20
2023-04-20T12:59:09.143Z,3.50
2023-04-20T13:01:37.322Z,3.20
2023-04-20T13:04:05.600Z,2.70
2023-04-20T13:06:34.286Z,3.40
2023-04-20T13:09:04.105Z,3.40
2023-04-20T13:11:32.155Z,3.20
2023-04-20T13:14:00.834Z,3.70
2023-04-20T13:16:29.927Z,3.10
2023-04-20T13:18:58.317Z,4.30
2023-04-20T13:21:26.694Z,3.70
2023-04-20T13:23:55.530Z,3.70
2023-04-20T13:26:25.716Z,4.20
2023-04-20T13:28:54.411Z,3.30
2023-04-20T13:31:22.793Z,3.80
2023-04-20T13:33:54.526Z,3.80
2023-04-20T13:36:24.209Z,3.50
2023-04-20T13:38:53.712Z,3.50
2023-04-20T13:41:25.366Z,3.60
2023-04-20T13:43:53.684Z,3.40
2023-04-20T13:46:21.996Z,3.50
2023-04-20T13:48:53.059Z,3.80
2023-04-20T13:51:21.175Z,3.30
2023-04-20T13:53:49.467Z,3.70
2023-04-20T13:56:17.626Z,3.30
2023-04-20T13:58:45.963Z,3.60
2023-04-20T14:01:17.908Z,4.00
2023-04-20T14:03:46.735Z,3.70
2023-04-20T14:06:15.139Z,3.50
2023-04-20T14:08:43.531Z,3.70
2023-04-20T14:11:11.699Z,3.40
2023-04-20T14:13:41.231Z,3.20
2023-04-20T14:16:14.472Z,3.10
2023-04-20T14:18:42.869Z,3.30
2023-04-20T14:21:11.115Z,3.30
2023-04-20T14:23:39.379Z,3.60
2023-04-20T14:26:07.655Z,5.40
2023-04-20T14:28:36.081Z,3.70
2023-04-20T14:31:04.462Z,3.70
2023-04-20T14:33:32.636Z,3.60
2023-04-20T14:36:01.022Z,4.00
2023-04-20T14:38:29.081Z,3.50
2023-04-20T14:40:57.366Z,3.50
2023-04-20T14:43:25.534Z,3.90
2023-04-20T14:45:55.267Z,3.30
2023-04-20T14:48:25.173Z,2.90
2023-04-20T14:50:53.731Z,3.00
2023-04-20T14:53:22.133Z,3.00
2023-04-20T14:55:51.250Z,3.10
2023-04-20T15:00:49.099Z,3.10
2023-04-20T15:03:18.425Z,3.00
2023-04-20T15:05:47.488Z,2.50
2023-04-20T15:08:15.676Z,3.20
2023-04-20T15:10:43.973Z,3.40
2023-04-20T15:13:12.231Z,3.00
2023-04-20T15:15:48.123Z,3.00
2023-04-20T15:18:18.125Z,3.10
2023-04-20T15:20:46.441Z,3.50
2023-04-20T15:23:15.189Z,3.40
2023-04-20T15:25:43.274Z,3.20
2023-04-20T15:28:11.520Z,2.90
2023-04-20T15:30:39.906Z,3.80
2023-04-20T15:33:08.263Z,3.30
2023-04-20T15:35:36.553Z,2.90
2023-04-20T15:38:04.932Z,3.20
2023-04-20T15:40:33.214Z,3.50
2023-04-20T15:43:02.926Z,3.50
2023-04-20T15:45:31.365Z,4.10
2023-04-20T15:48:01.105Z,3.30
2023-04-20T15:50:29.549Z,4.40
2023-04-20T15:52:57.660Z,3.20
2023-04-20T15:55:26.168Z,3.20
2023-04-20T15:58:00.409Z,3.10
2023-04-20T16:00:28.736Z,3.00
2023-04-20T16:02:57.143Z,2.60
2023-04-20T16:05:28.370Z,2.60
2023-04-20T16:07:58.379Z,2.80
2023-04-20T16:10:27.576Z,2.80
2023-04-20T16:15:24.860Z,2.70
2023-04-20T16:17:54.715Z,2.60
2023-04-20T16:20:23.047Z,2.20
2023-04-20T16:22:51.423Z,2.40
2023-04-20T16:25:23.171Z,2.70
2023-04-20T16:27:51.969Z,2.80
2023-04-20T16:30:20.320Z,2.80
2023-04-20T16:32:59.974Z,2.60
2023-04-20T16:35:28.339Z,2.20
2023-04-20T16:37:56.853Z,2.90
2023-04-20T16:40:26.244Z,2.60
2023-04-20T16:42:54.843Z,2.70
2023-04-20T16:45:23.028Z,2.50
2023-04-20T16:47:51.524Z,2.50
2023-04-20T16:50:20.609Z,2.40
2023-04-20T16:52:49.901Z,2.30
2023-04-20T16:55:18.274Z,3.50
2023-04-20T16:57:46.461Z,2.50
2023-04-20T17:00:15.508Z,2.50
2023-04-20T17:02:44.040Z,2.70
2023-04-20T17:05:15.375Z,2.90
2023-04-20T17:07:43.577Z,2.60
2023-04-20T17:10:12.546Z,2.30
2023-04-20T17:15:10.620Z,2.50
2023-04-20T17:17:39.084Z,3.20
2023-04-20T17:20:08.591Z,3.00
2023-04-20T17:25:07.322Z,2.70
2023-04-20T17:27:36.158Z,2.80
2023-04-20T17:30:05.671Z,2.90
2023-04-20T17:32:34.010Z,3.00
2023-04-20T17:35:03.080Z,2.90
2023-04-20T17:37:31.477Z,2.60
2023-04-20T17:39:59.526Z,2.80
2023-04-20T17:42:27.619Z,2.70
2023-04-20T17:44:55.788Z,2.90
2023-04-20T17:47:24.014Z,3.10
2023-04-20T17:49:52.339Z,2.70
2023-04-20T17:52:22.459Z,2.50
2023-04-20T17:54:50.648Z,2.60
2023-04-20T17:57:18.818Z,3.10
2023-04-20T17:59:46.886Z,3.20
2023-04-20T18:02:16.049Z,2.90
2023-04-20T18:04:44.390Z,2.90
2023-04-20T18:07:16.961Z,3.00
2023-04-20T18:09:45.316Z,3.00
2023-04-20T18:12:22.393Z,2.90
2023-04-20T18:14:50.889Z,3.10
2023-04-20T18:17:19.097Z,3.10
2023-04-20T18:19:47.382Z,2.80
2023-04-20T18:22:16.570Z,3.00
2023-04-20T18:24:45.037Z,2.90
2023-04-20T18:27:13.500Z,2.70
2023-04-20T18:29:42.203Z,3.10
2023-04-20T18:32:10.370Z,2.90
2023-04-20T18:34:38.630Z,2.70
2023-04-20T18:37:07.534Z,2.80
2023-04-20T18:39:37.894Z,2.80
2023-04-20T18:42:06.207Z,2.90
2023-04-20T18:44:34.443Z,2.70
2023-04-20T18:47:03.063Z,2.50
2023-04-20T18:49:32.092Z,3.10
2023-04-20T18:52:03.601Z,3.10
2023-04-20T18:54:31.808Z,2.70
2023-04-20T18:56:59.980Z,2.90
2023-04-20T18:59:28.368Z,2.60
2023-04-20T19:01:58.806Z,2.90
2023-04-20T19:04:27.773Z,2.70
2023-04-20T19:06:56.113Z,3.30
2023-04-20T19:09:24.260Z,2.90
2023-04-20T19:11:52.630Z,3.20
2023-04-20T19:14:20.911Z,3.60
2023-04-20T19:16:49.612Z,3.50
2023-04-20T19:19:17.716Z,3.00
2023-04-20T19:21:45.929Z,3.10
2023-04-20T19:24:14.302Z,3.30
2023-04-20T19:26:42.523Z,2.80
2023-04-20T19:29:12.617Z,3.10
2023-04-20T19:31:42.174Z,2.80
2023-04-20T19:34:13.666Z,2.90
2023-04-20T19:39:10.621Z,2.90
2023-04-20T19:41:41.269Z,2.60
2023-04-20T19:44:10.658Z,2.90
2023-04-20T19:46:43.570Z,3.80
2023-04-20T19:49:20.809Z,3.20
2023-04-20T19:51:49.222Z,3.00
2023-04-20T19:54:17.653Z,3.20
2023-04-20T19:56:46.048Z,3.10
2023-04-20T19:59:14.494Z,2.50
2023-04-20T20:01:46.126Z,2.60
2023-04-20T20:04:14.473Z,3.00
2023-04-20T20:06:48.650Z,2.70
2023-04-20T20:09:23.200Z,3.10
2023-04-20T20:11:52.428Z,3.00
2023-04-20T20:14:28.225Z,2.90
2023-04-20T20:16:56.681Z,2.70
2023-04-20T20:19:25.132Z,3.30
2023-04-20T20:21:53.659Z,2.90
2023-04-20T20:24:23.324Z,3.00
2023-04-20T20:26:52.131Z,2.70
2023-04-20T20:29:20.637Z,2.70
2023-04-20T20:31:49.048Z,2.60
2023-04-20T20:34:17.185Z,2.60
2023-04-20T20:36:46.472Z,3.30
2023-04-20T20:39:15.758Z,2.80
2023-04-20T20:41:44.949Z,3.10
2023-04-20T20:44:13.326Z,3.10
2023-04-20T20:46:41.633Z,2.80
2023-04-20T20:49:09.884Z,2.90
2023-04-20T20:51:37.954Z,3.30
2023-04-20T20:54:06.029Z,2.60
2023-04-20T20:56:34.201Z,3.50
2023-04-20T20:59:02.985Z,3.10
2023-04-20T21:01:31.882Z,3.20
2023-04-20T21:04:00.266Z,2.80
2023-04-20T21:06:28.636Z,3.00
2023-04-20T21:08:57.250Z,2.80
2023-04-20T21:11:25.501Z,3.30
2023-04-20T21:13:54.590Z,2.60
2023-04-20T21:16:23.378Z,3.20
2023-04-20T21:18:51.659Z,3.30
2023-04-20T21:21:19.802Z,3.00
2023-04-20T21:23:49.260Z,2.90
2023-04-20T21:26:17.542Z,2.90
2023-04-20T21:28:45.586Z,2.90
2023-04-20T21:31:13.663Z,3.20
2023-04-20T21:33:41.834Z,3.20
2023-04-20T21:36:09.908Z,2.60
2023-04-20T21:38:37.986Z,2.70
2023-04-20T21:41:06.458Z,2.90
2023-04-20T21:43:34.645Z,2.50
2023-04-20T21:46:02.818Z,2.30
2023-04-20T21:48:30.951Z,2.80
2023-04-20T21:50:58.982Z,3.50
2023-04-20T21:53:27.013Z,2.60
2023-04-20T21:55:55.202Z,3.10
2023-04-20T21:58:23.267Z,3.00
2023-04-20T22:00:51.314Z,3.20
2023-04-20T22:03:19.640Z,2.90
2023-04-20T22:05:48.101Z,3.20
2023-04-20T22:08:16.105Z,3.10
2023-04-20T22:10:44.158Z,3.30
2023-04-20T22:13:13.344Z,2.90
2023-04-20T22:18:11.381Z,3.00
2023-04-20T22:20:39.769Z,2.80
2023-04-20T22:23:07.879Z,3.00
2023-04-20T22:25:36.053Z,3.20
2023-04-20T22:28:04.334Z,2.70
2023-04-20T22:30:32.552Z,3.40
2023-04-20T22:33:01.408Z,3.60
2023-04-20T22:35:30.767Z,2.80
2023-04-20T22:37:59.492Z,3.10
2023-04-20T22:40:27.763Z,2.80
2023-04-20T22:42:55.910Z,3.60
2023-04-20T22:45:24.159Z,3.20
2023-04-20T22:47:52.519Z,2.70
2023-04-20T22:50:20.878Z,3.30
2023-04-20T22:52:50.490Z,4.00
2023-04-20T22:55:18.694Z,2.90
2023-04-20T22:57:46.837Z,3.20
2023-04-20T23:00:15.522Z,3.20
2023-04-20T23:02:43.815Z,3.40
2023-04-20T23:05:12.338Z,3.30
2023-04-20T23:07:40.481Z,3.40
2023-04-20T23:10:09.821Z,3.10
2023-04-20T23:12:38.552Z,2.90
2023-04-20T23:15:07.328Z,3.20
2023-04-20T23:17:35.639Z,2.80
2023-04-20T23:20:13.917Z,3.40
2023-04-20T23:22:42.302Z,2.90
2023-04-20T23:25:11.086Z,2.70
2023-04-20T23:27:39.181Z,3.00
2023-04-20T23:30:17.676Z,2.90
2023-04-20T23:32:45.895Z,2.60
2023-04-20T23:35:14.425Z,3.40
2023-04-20T23:37:42.806Z,3.50
2023-04-20T23:40:11.398Z,2.80
2023-04-20T23:42:39.571Z,3.10
2023-04-20T23:45:11.957Z,3.00
2023-04-20T23:47:40.374Z,3.60
2023-04-20T23:50:09.233Z,3.60
2023-04-20T23:52:37.296Z,3.30
2023-04-20T23:55:05.786Z,3.30
2023-04-20T23:57:34.347Z,3.10
